CW0639 Weather Reports


time (UTC)temp
F
wind
direction
speed
knots
gust
knots
rain 1hr
in
rain 24hr
in
rain mn
in
humidity
%
barometer
mb
20190522220324 87 94 0.9 3.5 0.00 0.00 0.00 55 1018.7
20190522214811 87 97 1.7 3.5 0.00 0.00 0.00 54 1018.7
20190522213314 88 123 1.7 3.5 0.00 0.00 0.00 51 1018.6
20190522211821 88 105 1.7 4.3 0.00 0.00 0.00 50 1018.7
20190522210314 90 92 1.7 3.5 0.00 0.00 0.00 48 1018.6
20190522204820 90 86 0.9 5.2 0.00 0.00 0.00 49 1018.5
20190522203323 91 76 0.9 4.3 0.00 0.00 0.00 47 1018.2
20190522201830 91 86 0.9 6.1 0.00 0.00 0.00 48 1018.2
20190522200313 92 73 1.7 3.5 0.00 0.00 0.00 44 1018.1
20190522194820 92 119 1.7 5.2 0.00 0.00 0.00 44 1018.1
20190522193322 93 321 0.9 3.5 0.00 0.00 0.00 44 1018.2
20190522191829 94 107 1.7 4.3 0.00 0.00 0.00 42 1018.1
20190522190325 93 111 1.7 5.2 0.00 0.00 0.00 44 1018.1
20190522184829 94 107 1.7 5.2 0.00 0.00 0.00 42 1018.0
20190522183311 93 32 1.7 5.2 0.00 0.00 0.00 42 1018.0
20190522181818 93 81 1.7 5.2 0.00 0.00 0.00 44 1018.0
20190522180321 94 98 1.7 6.1 0.00 0.00 0.00 46 1018.0
20190522174817 94 128 1.7 6.1 0.00 0.00 0.00 47 1018.1
20190522173320 92 349 1.7 3.5 0.00 0.00 0.00 52 1018.0
20190522171822 93 96 1.7 3.5 0.00 0.00 0.00 52 1018.0
20190522170328 92 47 0.9 3.5 0.00 0.00 0.00 53 1018.0
20190522164811 91 170 1.7 4.3 0.00 0.00 0.00 55 1018.1
20190522163318 91 37 1.7 3.5 0.00 0.00 0.00 57 1018.2
20190522161821 88 101 0.9 2.6 0.00 0.00 0.00 61 1018.3
20190522160328 89 101 0.9 4.3 0.00 0.00 0.00 61 1018.2
20190522154811 89 121 0.0 4.3 0.00 0.00 0.00 63 1018.3
20190522153317 88 111 0.9 1.7 0.00 0.00 0.00 61 1018.3
20190522151820 86 96 0.9 2.6 0.00 0.00 0.00 65 1018.3
20190522150327 86 347 1.7 3.5 0.00 0.00 0.00 67 1018.2
20190522144818 85 179 1.7 4.3 0.00 0.00 0.00 69 1018.2
20190522143326 85 171 1.7 4.3 0.00 0.00 0.00 69 1018.2
20190522141829 84 167 2.6 3.5 0.00 0.00 0.00 72 1018.2
20190522140316 83 232 1.7 3.5 0.00 0.00 0.00 74 1018.2
20190522134818 82 158 2.6 6.1 0.00 0.00 0.00 76 1018.2
20190522133326 81 171 1.7 4.3 0.00 0.00 0.00 77 1018.1
20190522131829 81 163 1.7 4.3 0.00 0.00 0.00 78 1018.0
20190522130316 80 180 1.7 4.3 0.00 0.00 0.00 80 1017.9
20190522124819 80 157 0.9 3.5 0.00 0.00 0.00 81 1017.8
20190522123329 78 190 1.7 4.3 0.00 0.00 0.00 83 1017.8
20190522121816 78 140 0.0 3.5 0.00 0.00 0.00 84 1017.8
20190522120318 77 159 0.9 2.6 0.00 0.00 0.00 86 1017.8
20190522114825 76 167 1.7 4.3 0.00 0.00 0.00 88 1017.5
20190522113328 75 160 0.9 2.6 0.00 0.00 0.00 90 1017.4
20190522111815 75 147 0.0 0.0 0.00 0.00 0.00 91 1017.1
20190522110318 74 147 0.0 0.9 0.00 0.00 0.00 91 1016.9
20190522104826 74 147 0.0 1.7 0.00 0.00 0.00 90 1016.7
20190522103328 75 153 0.0 0.9 0.00 0.00 0.00 89 1016.5
20190522101815 75 153 0.0 2.6 0.00 0.00 0.00 88 1016.2
20190522100319 76 163 0.9 4.3 0.00 0.00 0.00 88 1016.1
20190522094838 76 163 0.0 1.7 0.00 0.00 0.00 87 1016.0
20190522093328 76 173 2.6 6.1 0.00 0.00 0.00 86 1015.9
20190522090319 76 196 0.9 4.3 0.00 0.00 0.00 85 1015.7
20190522084826 76 144 2.6 5.2 0.00 0.00 0.00 85 1015.6
20190522083329 76 239 2.6 7.0 0.00 0.00 0.00 86 1015.4
20190522081814 76 153 2.6 7.0 0.00 0.00 0.00 86 1015.5
20190522080317 76 169 2.6 7.8 0.00 0.00 0.00 86 1015.3
20190522074821 76 157 3.5 7.8 0.00 0.00 0.00 86 1015.2
20190522073329 76 143 2.6 7.0 0.00 0.00 0.00 86 1015.2
20190522071831 76 169 2.6 7.8 0.00 0.00 0.00 86 1015.1
20190522070319 76 177 2.6 5.2 0.00 0.00 0.00 86 1015.2
20190522064822 76 139 3.5 7.0 0.00 0.00 0.00 86 1015.2
20190522063329 76 162 2.6 6.1 0.00 0.00 0.00 86 1015.2
20190522061843 75 137 1.7 4.3 0.00 0.00 0.00 85 1015.2
20190522060318 75 166 0.0 1.7 0.00 0.00 0.00 85 1015.2
20190522054821 76 169 0.0 0.9 0.00 0.00 0.00 84 1015.2
20190522053328 76 179 1.7 2.6 0.00 0.00 0.00 84 1015.3
20190522051830 77 153 0.9 2.6 0.00 0.00 0.00 84 1015.3
20190522050317 77 159 2.6 6.1 0.00 0.00 0.00 83 1015.3
20190522044820 77 165 1.7 5.2 0.00 0.00 0.00 83 1015.1
20190522043326 77 162 1.7 5.2 0.00 0.00 0.00 83 1015.1
20190522041828 77 175 0.9 3.5 0.00 0.00 0.00 82 1015.1
20190522040315 78 155 1.7 4.3 0.00 0.00 0.00 81 1015.0
20190522034818 78 157 4.3 7.0 0.00 0.00 0.00 81 1014.9
20190522033326 78 144 2.6 6.1 0.00 0.00 0.00 80 1014.7
20190522031829 78 153 1.7 4.3 0.00 0.00 0.00 79 1014.8
20190522030316 79 172 1.7 4.3 0.00 0.00 0.00 78 1014.6
20190522024818 79 136 2.6 6.1 0.00 0.00 0.00 78 1014.5
20190522023324 79 164 0.9 6.1 0.00 0.00 0.00 76 1014.3
20190522021827 80 178 0.9 5.2 0.00 0.00 0.00 76 1014.1
20190522020315 80 157 2.6 4.3 0.00 0.00 0.00 74 1014.0
20190522014818 80 176 0.9 1.7 0.00 0.00 0.00 73 1013.7
20190522013321 81 140 0.9 2.6 0.00 0.00 0.00 73 1013.5
20190522011827 81 119 0.9 2.6 0.00 0.00 0.00 72 1013.3
20190522010331 82 117 0.0 2.6 0.00 0.00 0.00 70 1013.3
20190522004818 82 136 1.7 4.3 0.00 0.00 0.00 68 1013.0
20190522003320 83 103 0.9 1.7 0.00 0.00 0.00 66 1012.8
20190522001828 84 134 0.9 2.6 0.00 0.00 0.00 63 1012.6
20190522000331 84 115 0.9 2.6 0.00 0.00 0.00 61 1012.5
20190521234815 85 121 0.9 3.5 0.00 0.00 0.00 59 1012.4
20190521233317 86 107 0.9 2.6 0.00 0.00 0.00 60 1012.3
20190521231824 86 150 1.7 5.2 0.00 0.00 0.00 60 1012.0
20190521230328 86 107 0.9 3.5 0.00 0.00 0.00 61 1012.0
20190521224814 87 136 1.7 5.2 0.00 0.00 0.00 58 1012.1
20190521223316 89 74 2.6 7.0 0.00 0.00 0.00 54 1012.0
20190521221824 89 86 0.9 3.5 0.00 0.00 0.00 56 1011.9